createdAt,value
2023-07-02T00:01:50.003Z,16.52
2023-07-02T00:06:51.274Z,16.52
2023-07-02T00:11:52.469Z,16.51
2023-07-02T00:16:53.698Z,16.50
2023-07-02T00:21:54.956Z,16.49
2023-07-02T00:26:56.132Z,16.47
2023-07-02T00:31:57.522Z,16.49
2023-07-02T00:36:58.684Z,16.51
2023-07-02T00:41:59.862Z,16.52
2023-07-02T00:47:01.208Z,16.50
2023-07-02T00:52:02.444Z,16.48
2023-07-02T00:57:04.410Z,16.46
2023-07-02T01:02:06.252Z,16.44
2023-07-02T01:07:10.820Z,16.43
2023-07-02T01:12:12.079Z,16.43
2023-07-02T01:17:13.264Z,16.44
2023-07-02T01:22:14.460Z,16.44
2023-07-02T01:27:15.885Z,16.42
2023-07-02T01:32:17.085Z,16.39
2023-07-02T01:37:19.161Z,16.36
2023-07-02T01:42:20.546Z,16.33
2023-07-02T01:47:21.934Z,16.31
2023-07-02T01:52:23.161Z,16.30
2023-07-02T01:57:24.354Z,16.25
2023-07-02T02:02:25.636Z,16.23
2023-07-02T02:07:27.212Z,16.18
2023-07-02T02:12:29.481Z,16.16
2023-07-02T02:17:30.680Z,16.13
2023-07-02T02:22:31.898Z,16.06
2023-07-02T02:27:33.212Z,15.98
2023-07-02T02:32:34.420Z,15.91
2023-07-02T02:37:36.449Z,15.86
2023-07-02T02:42:37.671Z,15.87
2023-07-02T02:47:38.912Z,15.83
2023-07-02T02:52:40.130Z,15.82
2023-07-02T02:57:41.506Z,15.77
2023-07-02T03:02:42.796Z,15.77
2023-07-02T03:07:44.048Z,15.77
2023-07-02T03:12:45.344Z,15.74
2023-07-02T03:17:46.574Z,15.77
2023-07-02T03:22:47.767Z,15.77
2023-07-02T03:27:49.039Z,15.77
2023-07-02T03:32:50.382Z,15.80
2023-07-02T03:37:51.598Z,15.81
2023-07-02T03:42:52.820Z,15.80
2023-07-02T03:47:54.179Z,15.82
2023-07-02T03:52:55.385Z,15.81
2023-07-02T03:57:56.618Z,15.82
2023-07-02T04:02:57.825Z,15.79
2023-07-02T04:07:59.386Z,15.80
2023-07-02T04:13:00.571Z,15.84
2023-07-02T04:18:02.005Z,15.85
2023-07-02T04:23:03.190Z,15.86
2023-07-02T04:28:04.369Z,15.82
2023-07-02T04:33:06.621Z,15.88
2023-07-02T04:38:08.223Z,15.95
2023-07-02T04:43:09.463Z,15.95
2023-07-02T04:48:10.627Z,15.97
2023-07-02T04:53:11.897Z,16.02
2023-07-02T04:58:13.083Z,16.07
2023-07-02T05:03:14.286Z,16.05
2023-07-02T05:08:15.488Z,16.07
2023-07-02T05:13:16.707Z,16.14
2023-07-02T05:18:17.877Z,16.21
2023-07-02T05:23:19.050Z,16.27
2023-07-02T05:28:20.258Z,16.35
2023-07-02T05:33:22.997Z,16.46
2023-07-02T05:38:25.143Z,16.56
2023-07-02T05:43:26.295Z,16.60
2023-07-02T05:48:27.658Z,16.67
2023-07-02T05:53:28.827Z,16.75
2023-07-02T05:58:39.247Z,16.87
2023-07-02T06:03:46.334Z,16.97
2023-07-02T06:08:47.696Z,17.01
2023-07-02T06:13:48.887Z,17.09
2023-07-02T06:18:50.116Z,17.07
2023-07-02T06:23:51.458Z,17.19
2023-07-02T06:28:52.701Z,17.25
2023-07-02T06:33:53.919Z,17.39
2023-07-02T06:38:55.081Z,17.40
2023-07-02T06:43:56.249Z,17.42
2023-07-02T06:48:57.449Z,17.56
2023-07-02T06:53:58.670Z,17.71
2023-07-02T06:58:59.849Z,17.81
2023-07-02T07:04:01.150Z,17.98
2023-07-02T07:09:02.364Z,18.11
2023-07-02T07:14:03.736Z,18.10
2023-07-02T07:19:04.946Z,18.34
2023-07-02T07:24:06.109Z,18.44
2023-07-02T07:29:07.292Z,18.66
2023-07-02T07:34:08.511Z,18.50
2023-07-02T07:39:09.694Z,18.59
2023-07-02T07:44:10.865Z,18.61
2023-07-02T07:49:12.078Z,18.68
2023-07-02T07:54:13.280Z,18.85
2023-07-02T07:59:15.778Z,19.11
2023-07-02T08:04:16.993Z,19.00
2023-07-02T08:09:18.300Z,19.13
2023-07-02T08:14:22.237Z,19.36
2023-07-02T08:19:23.851Z,19.30
2023-07-02T08:24:25.933Z,19.17
2023-07-02T08:29:27.109Z,19.42
2023-07-02T08:34:28.337Z,19.36
2023-07-02T08:39:29.506Z,19.32
2023-07-02T08:44:30.658Z,19.45
2023-07-02T08:49:31.821Z,19.77
2023-07-02T08:54:32.996Z,20.04
2023-07-02T08:59:34.175Z,20.22
2023-07-02T09:04:35.429Z,20.23
2023-07-02T09:09:36.626Z,20.71
2023-07-02T09:14:37.779Z,20.82
2023-07-02T09:19:39.029Z,20.93
2023-07-02T09:24:44.232Z,20.76
2023-07-02T09:29:45.585Z,20.44
2023-07-02T09:34:46.884Z,20.38
2023-07-02T09:39:48.086Z,20.34
2023-07-02T09:44:49.264Z,20.26
2023-07-02T09:49:50.465Z,20.70
2023-07-02T09:54:51.657Z,20.96
2023-07-02T09:59:52.867Z,21.89
2023-07-02T10:04:56.281Z,21.03
2023-07-02T10:09:57.717Z,20.28
2023-07-02T10:14:59.088Z,19.90
2023-07-02T10:20:00.388Z,19.98
2023-07-02T10:25:02.085Z,20.77
2023-07-02T10:30:04.684Z,21.00
2023-07-02T10:35:07.338Z,20.84
2023-07-02T10:40:08.748Z,20.76
2023-07-02T10:45:09.934Z,20.78
2023-07-02T10:50:11.106Z,21.07
2023-07-02T10:55:14.397Z,21.32
2023-07-02T11:00:15.710Z,21.64
2023-07-02T11:05:17.029Z,21.94
2023-07-02T11:10:18.240Z,21.94
2023-07-02T11:15:19.474Z,21.13
2023-07-02T11:20:20.653Z,21.11
2023-07-02T11:25:21.874Z,21.78
2023-07-02T11:30:23.070Z,23.57
2023-07-02T11:35:24.309Z,23.84
2023-07-02T11:40:25.506Z,22.19
2023-07-02T11:45:26.716Z,21.13
2023-07-02T11:50:27.900Z,20.47
2023-07-02T11:55:29.093Z,19.96
2023-07-02T12:00:30.282Z,20.02
2023-07-02T12:05:31.461Z,21.05
2023-07-02T12:10:32.622Z,22.11
2023-07-02T12:15:33.782Z,23.18
2023-07-02T12:20:34.999Z,24.20
2023-07-02T12:25:36.249Z,23.15
2023-07-02T12:30:37.477Z,22.51
2023-07-02T12:35:38.708Z,22.37
2023-07-02T12:40:39.874Z,22.85
2023-07-02T12:45:41.038Z,22.62
2023-07-02T12:50:42.253Z,22.41
2023-07-02T12:55:43.450Z,22.54
2023-07-02T13:00:45.648Z,22.58
2023-07-02T13:05:46.986Z,22.86
2023-07-02T13:10:48.463Z,23.40
2023-07-02T13:15:49.873Z,23.65
2023-07-02T13:20:51.236Z,24.05
2023-07-02T13:25:52.625Z,24.18
2023-07-02T13:30:53.834Z,24.41
2023-07-02T13:35:54.984Z,24.08
2023-07-02T13:40:56.142Z,23.77
2023-07-02T13:45:57.359Z,23.21
2023-07-02T13:50:58.602Z,23.49
2023-07-02T13:55:59.782Z,23.45
2023-07-02T14:01:01.065Z,23.25
2023-07-02T14:06:02.365Z,22.88
2023-07-02T14:11:03.537Z,22.92
2023-07-02T14:16:04.816Z,23.03
2023-07-02T14:21:06.145Z,23.00
2023-07-02T14:26:07.348Z,22.75
2023-07-02T14:31:08.652Z,22.86
2023-07-02T14:36:09.875Z,23.08
2023-07-02T14:41:11.044Z,23.37
2023-07-02T14:46:12.422Z,23.63
2023-07-02T14:51:13.580Z,23.61
2023-07-02T14:56:14.803Z,23.21
2023-07-02T15:01:17.293Z,22.88
2023-07-02T15:06:18.725Z,23.09
2023-07-02T15:11:19.940Z,23.37
2023-07-02T15:16:22.450Z,23.23
2023-07-02T15:21:25.470Z,23.14
2023-07-02T15:26:26.775Z,22.83
2023-07-02T15:31:27.961Z,22.71
2023-07-02T15:36:29.864Z,22.54
2023-07-02T15:41:31.175Z,22.84
2023-07-02T15:46:33.822Z,22.44
2023-07-02T15:51:37.799Z,22.56
2023-07-02T15:56:39.062Z,22.73
2023-07-02T16:01:40.506Z,22.21
2023-07-02T16:06:41.821Z,22.17
2023-07-02T16:11:43.344Z,22.21
2023-07-02T16:16:44.789Z,22.25
2023-07-02T16:21:46.145Z,22.47
2023-07-02T16:26:47.334Z,22.57
2023-07-02T16:31:48.620Z,22.54
2023-07-02T16:36:49.879Z,22.33
2023-07-02T16:41:51.101Z,22.13
2023-07-02T16:46:55.293Z,22.17
2023-07-02T16:51:56.644Z,22.22
2023-07-02T16:56:57.818Z,22.16
2023-07-02T17:01:59.059Z,22.19
2023-07-02T17:07:00.313Z,22.29
2023-07-02T17:12:02.993Z,22.31
2023-07-02T17:17:04.518Z,22.14
2023-07-02T17:22:05.922Z,21.98
2023-07-02T17:27:07.790Z,21.95
2023-07-02T17:32:08.953Z,21.90
2023-07-02T17:37:10.171Z,21.75
2023-07-02T17:42:13.255Z,21.75
2023-07-02T17:47:14.469Z,21.60
2023-07-02T17:52:15.685Z,21.42
2023-07-02T17:57:16.886Z,21.35
2023-07-02T18:02:20.573Z,21.30
2023-07-02T18:07:21.776Z,21.39
2023-07-02T18:12:26.067Z,21.18
2023-07-02T18:17:27.316Z,21.11
2023-07-02T18:22:28.606Z,21.10
2023-07-02T18:27:29.769Z,21.06
2023-07-02T18:32:31.159Z,20.96
2023-07-02T18:37:32.541Z,20.92
2023-07-02T18:42:33.695Z,20.87
2023-07-02T18:47:34.880Z,20.80
2023-07-02T18:52:36.088Z,20.75
2023-07-02T18:57:37.357Z,20.61
2023-07-02T19:02:38.734Z,20.41
2023-07-02T19:07:40.067Z,20.32
2023-07-02T19:12:42.869Z,20.28
2023-07-02T19:17:44.548Z,20.24
2023-07-02T19:22:46.260Z,20.22
2023-07-02T19:27:50.826Z,20.22
2023-07-02T19:32:52.098Z,20.15
2023-07-02T19:37:53.281Z,20.06
2023-07-02T19:42:54.548Z,20.03
2023-07-02T19:47:55.756Z,20.00
2023-07-02T19:52:56.939Z,19.99
2023-07-02T19:57:58.128Z,19.91
2023-07-02T20:02:59.333Z,19.85
2023-07-02T20:08:00.587Z,19.83
2023-07-02T20:13:01.755Z,19.78
2023-07-02T20:18:04.217Z,19.72
2023-07-02T20:23:05.412Z,19.64
2023-07-02T20:28:06.631Z,19.60
2023-07-02T20:33:07.841Z,19.54
2023-07-02T20:38:09.092Z,19.47
2023-07-02T20:43:14.472Z,19.41
2023-07-02T20:48:15.851Z,19.33
2023-07-02T20:53:17.036Z,19.31
2023-07-02T20:58:18.400Z,19.27
2023-07-02T21:03:19.690Z,19.25
2023-07-02T21:08:22.997Z,19.20
2023-07-02T21:13:24.173Z,19.13
2023-07-02T21:18:25.334Z,19.03
2023-07-02T21:23:26.497Z,18.96
2023-07-02T21:28:27.716Z,18.92
2023-07-02T21:33:28.879Z,18.85
2023-07-02T21:38:30.057Z,18.75
2023-07-02T21:43:31.250Z,18.56
2023-07-02T21:48:32.431Z,18.40
2023-07-02T21:53:33.605Z,18.26
2023-07-02T21:58:34.790Z,18.13
2023-07-02T22:03:36.021Z,18.09
2023-07-02T22:08:37.241Z,17.95
2023-07-02T22:13:38.403Z,17.69
2023-07-02T22:18:42.511Z,17.47
2023-07-02T22:23:46.740Z,17.26
2023-07-02T22:28:47.978Z,17.08
2023-07-02T22:33:49.183Z,16.96
2023-07-02T22:38:50.366Z,16.82
2023-07-02T22:43:51.801Z,16.70
2023-07-02T22:48:53.006Z,16.58
2023-07-02T22:53:54.322Z,16.47
2023-07-02T22:58:55.512Z,16.38
2023-07-02T23:03:56.826Z,16.28
2023-07-02T23:08:58.084Z,16.19
2023-07-02T23:13:59.271Z,16.08
2023-07-02T23:19:00.440Z,16.04
2023-07-02T23:24:01.632Z,15.97
2023-07-02T23:29:02.859Z,15.92
2023-07-02T23:34:04.090Z,15.91
2023-07-02T23:39:05.897Z,15.86
2023-07-02T23:44:07.350Z,15.78
2023-07-02T23:49:08.515Z,15.73
2023-07-02T23:54:09.730Z,15.63
2023-07-02T23:59:10.889Z,15.57
